sensor_id;sensor_type;location;lat;lon;timestamp;temperature;humidity
19242;DHT22;9755;47.790;9.620;2023-01-23T00:00:45;-2.80;1.00
19242;DHT22;9755;47.790;9.620;2023-01-23T00:03:12;-2.80;1.00
19242;DHT22;9755;47.790;9.620;2023-01-23T00:05:44;-2.80;1.00
19242;DHT22;9755;47.790;9.620;2023-01-23T00:08:11;-2.90;1.00
19242;DHT22;9755;47.790;9.620;2023-01-23T00:10:42;-2.80;94.00
19242;DHT22;9755;47.790;9.620;2023-01-23T00:13:09;-2.80;99.90
19242;DHT22;9755;47.790;9.620;2023-01-23T00:15:38;-2.70;99.90
19242;DHT22;9755;47.790;9.620;2023-01-23T00:18:07;-2.60;99.90
19242;DHT22;9755;47.790;9.620;2023-01-23T00:20:36;-2.50;65.80
19242;DHT22;9755;47.790;9.620;2023-01-23T00:23:04;-2.40;1.00
19242;DHT22;9755;47.790;9.620;2023-01-23T00:25:32;-2.40;99.90
19242;DHT22;9755;47.790;9.620;2023-01-23T00:28:00;-2.40;1.00
19242;DHT22;9755;47.790;9.620;2023-01-23T00:30:27;-2.40;99.90
19242;DHT22;9755;47.790;9.620;2023-01-23T00:32:54;-2.40;60.50
19242;DHT22;9755;47.790;9.620;2023-01-23T00:35:21;-2.30;99.90
19242;DHT22;9755;47.790;9.620;2023-01-23T00:37:48;-2.20;1.00
19242;DHT22;9755;47.790;9.620;2023-01-23T00:40:17;-2.20;99.90
19242;DHT22;9755;47.790;9.620;2023-01-23T00:42:44;-2.20;1.00
19242;DHT22;9755;47.790;9.620;2023-01-23T00:45:11;-2.30;1.00
19242;DHT22;9755;47.790;9.620;2023-01-23T00:47:38;-2.30;1.00
19242;DHT22;9755;47.790;9.620;2023-01-23T00:50:05;-2.30;1.00
19242;DHT22;9755;47.790;9.620;2023-01-23T00:52:32;-2.30;1.00
19242;DHT22;9755;47.790;9.620;2023-01-23T00:55:00;-2.40;1.00
19242;DHT22;9755;47.790;9.620;2023-01-23T00:57:28;-2.50;1.00
19242;DHT22;9755;47.790;9.620;2023-01-23T00:59:56;-2.40;1.00
19242;DHT22;9755;47.790;9.620;2023-01-23T01:02:23;-2.50;1.00
19242;DHT22;9755;47.790;9.620;2023-01-23T01:04:50;-2.60;1.00
19242;DHT22;9755;47.790;9.620;2023-01-23T01:07:17;-2.70;1.00
19242;DHT22;9755;47.790;9.620;2023-01-23T01:09:44;-2.80;1.00
19242;DHT22;9755;47.790;9.620;2023-01-23T01:12:11;-2.80;1.00
19242;DHT22;9755;47.790;9.620;2023-01-23T01:14:40;-2.90;1.00
19242;DHT22;9755;47.790;9.620;2023-01-23T01:17:07;-2.90;1.00
19242;DHT22;9755;47.790;9.620;2023-01-23T01:19:34;-2.90;1.00
19242;DHT22;9755;47.790;9.620;2023-01-23T01:22:02;-2.90;1.00
19242;DHT22;9755;47.790;9.620;2023-01-23T01:24:29;-3.00;1.00
19242;DHT22;9755;47.790;9.620;2023-01-23T01:26:56;-3.00;1.00
19242;DHT22;9755;47.790;9.620;2023-01-23T01:29:23;-3.10;99.90
19242;DHT22;9755;47.790;9.620;2023-01-23T01:31:51;-3.10;19.50
19242;DHT22;9755;47.790;9.620;2023-01-23T01:34:18;-3.20;45.80
19242;DHT22;9755;47.790;9.620;2023-01-23T01:36:45;-3.20;99.90
19242;DHT22;9755;47.790;9.620;2023-01-23T01:39:12;-3.20;99.90
19242;DHT22;9755;47.790;9.620;2023-01-23T01:41:39;-3.30;99.90
19242;DHT22;9755;47.790;9.620;2023-01-23T01:44:09;-3.30;1.00
19242;DHT22;9755;47.790;9.620;2023-01-23T01:46:39;-3.30;1.00
19242;DHT22;9755;47.790;9.620;2023-01-23T01:49:10;-3.40;1.00
19242;DHT22;9755;47.790;9.620;2023-01-23T01:51:42;-3.40;1.00
19242;DHT22;9755;47.790;9.620;2023-01-23T01:54:15;-3.40;1.00
19242;DHT22;9755;47.790;9.620;2023-01-23T01:56:50;-3.40;2.30
19242;DHT22;9755;47.790;9.620;2023-01-23T01:59:19;-3.40;38.20
19242;DHT22;9755;47.790;9.620;2023-01-23T02:01:51;-3.40;99.90
19242;DHT22;9755;47.790;9.620;2023-01-23T02:04:20;-3.50;99.90
19242;DHT22;9755;47.790;9.620;2023-01-23T02:06:48;-3.50;99.90
19242;DHT22;9755;47.790;9.620;2023-01-23T02:09:22;-3.60;1.00
19242;DHT22;9755;47.790;9.620;2023-01-23T02:11:50;-3.70;1.00
19242;DHT22;9755;47.790;9.620;2023-01-23T02:14:17;-3.70;1.00
19242;DHT22;9755;47.790;9.620;2023-01-23T02:16:45;-3.70;1.00
19242;DHT22;9755;47.790;9.620;2023-01-23T02:19:29;-3.70;99.90
19242;DHT22;9755;47.790;9.620;2023-01-23T02:22:05;-3.80;99.90
19242;DHT22;9755;47.790;9.620;2023-01-23T02:24:38;-3.90;99.90
19242;DHT22;9755;47.790;9.620;2023-01-23T02:27:08;-3.90;99.90
19242;DHT22;9755;47.790;9.620;2023-01-23T02:29:42;-3.90;1.00
19242;DHT22;9755;47.790;9.620;2023-01-23T02:32:09;-3.90;1.00
19242;DHT22;9755;47.790;9.620;2023-01-23T02:34:36;-3.90;1.00
19242;DHT22;9755;47.790;9.620;2023-01-23T02:37:04;-4.00;1.00
19242;DHT22;9755;47.790;9.620;2023-01-23T02:39:32;-4.00;99.90
19242;DHT22;9755;47.790;9.620;2023-01-23T02:42:00;-4.00;99.90
19242;DHT22;9755;47.790;9.620;2023-01-23T02:44:30;-3.90;99.90
19242;DHT22;9755;47.790;9.620;2023-01-23T02:46:59;-3.90;1.00
19242;DHT22;9755;47.790;9.620;2023-01-23T02:49:27;-3.90;1.00
19242;DHT22;9755;47.790;9.620;2023-01-23T02:51:55;-4.00;22.70
19242;DHT22;9755;47.790;9.620;2023-01-23T02:54:22;-4.00;99.90
19242;DHT22;9755;47.790;9.620;2023-01-23T02:56:50;-3.90;99.90
19242;DHT22;9755;47.790;9.620;2023-01-23T02:59:17;-4.00;17.00
19242;DHT22;9755;47.790;9.620;2023-01-23T03:02:03;-4.00;99.90
19242;DHT22;9755;47.790;9.620;2023-01-23T03:04:31;-4.00;99.90
19242;DHT22;9755;47.790;9.620;2023-01-23T03:06:58;-4.00;99.90
19242;DHT22;9755;47.790;9.620;2023-01-23T03:09:25;-4.10;99.90
19242;DHT22;9755;47.790;9.620;2023-01-23T03:11:52;-4.00;1.00
19242;DHT22;9755;47.790;9.620;2023-01-23T03:14:21;-3.90;99.90
19242;DHT22;9755;47.790;9.620;2023-01-23T03:16:48;-3.90;99.90
19242;DHT22;9755;47.790;9.620;2023-01-23T03:19:21;-4.00;1.00
19242;DHT22;9755;47.790;9.620;2023-01-23T03:21:49;-4.00;1.00
19242;DHT22;9755;47.790;9.620;2023-01-23T03:24:18;-3.90;99.90
19242;DHT22;9755;47.790;9.620;2023-01-23T03:26:47;-3.90;7.80
19242;DHT22;9755;47.790;9.620;2023-01-23T03:29:16;-3.90;1.00
19242;DHT22;9755;47.790;9.620;2023-01-23T03:32:01;-3.80;1.00
19242;DHT22;9755;47.790;9.620;2023-01-23T03:34:30;-3.80;1.00
19242;DHT22;9755;47.790;9.620;2023-01-23T03:36:57;-3.70;1.00
19242;DHT22;9755;47.790;9.620;2023-01-23T03:39:25;-3.70;1.00
19242;DHT22;9755;47.790;9.620;2023-01-23T03:42:09;-3.70;1.00
19242;DHT22;9755;47.790;9.620;2023-01-23T03:44:36;-3.60;99.90
19242;DHT22;9755;47.790;9.620;2023-01-23T03:47:04;-3.50;1.00
19242;DHT22;9755;47.790;9.620;2023-01-23T03:49:32;-3.50;1.00
19242;DHT22;9755;47.790;9.620;2023-01-23T03:51:59;-3.30;1.00
19242;DHT22;9755;47.790;9.620;2023-01-23T03:54:27;-3.30;1.00
19242;DHT22;9755;47.790;9.620;2023-01-23T03:56:54;-3.20;1.00
19242;DHT22;9755;47.790;9.620;2023-01-23T03:59:21;-3.10;99.90
19242;DHT22;9755;47.790;9.620;2023-01-23T04:01:48;-3.10;99.90
19242;DHT22;9755;47.790;9.620;2023-01-23T04:04:15;-3.00;99.90
19242;DHT22;9755;47.790;9.620;2023-01-23T04:06:44;-2.90;1.00
19242;DHT22;9755;47.790;9.620;2023-01-23T04:09:11;-2.80;99.90
19242;DHT22;9755;47.790;9.620;2023-01-23T04:11:38;-2.70;99.90
19242;DHT22;9755;47.790;9.620;2023-01-23T04:14:05;-2.70;99.90
19242;DHT22;9755;47.790;9.620;2023-01-23T04:16:32;-2.80;99.90
19242;DHT22;9755;47.790;9.620;2023-01-23T04:18:59;-2.90;1.00
19242;DHT22;9755;47.790;9.620;2023-01-23T04:21:26;-2.90;1.00
19242;DHT22;9755;47.790;9.620;2023-01-23T04:23:55;-3.00;1.00
19242;DHT22;9755;47.790;9.620;2023-01-23T04:26:22;-3.00;1.00
19242;DHT22;9755;47.790;9.620;2023-01-23T04:28:49;-3.00;99.90
19242;DHT22;9755;47.790;9.620;2023-01-23T04:31:16;-2.90;93.40
19242;DHT22;9755;47.790;9.620;2023-01-23T04:33:43;-2.80;99.90
19242;DHT22;9755;47.790;9.620;2023-01-23T04:36:10;-2.80;99.90
19242;DHT22;9755;47.790;9.620;2023-01-23T04:38:37;-2.80;1.00
19242;DHT22;9755;47.790;9.620;2023-01-23T04:41:06;-2.80;1.00
19242;DHT22;9755;47.790;9.620;2023-01-23T04:43:33;-2.80;1.00
19242;DHT22;9755;47.790;9.620;2023-01-23T04:46:00;-2.70;1.00
19242;DHT22;9755;47.790;9.620;2023-01-23T04:48:27;-2.60;1.00
19242;DHT22;9755;47.790;9.620;2023-01-23T04:50:54;-2.60;99.90
19242;DHT22;9755;47.790;9.620;2023-01-23T04:53:21;-2.50;31.10
19242;DHT22;9755;47.790;9.620;2023-01-23T04:55:48;-2.50;99.90
19242;DHT22;9755;47.790;9.620;2023-01-23T04:58:17;-2.60;99.90
19242;DHT22;9755;47.790;9.620;2023-01-23T05:00:45;-2.50;1.00
19242;DHT22;9755;47.790;9.620;2023-01-23T05:03:13;-2.50;1.00
19242;DHT22;9755;47.790;9.620;2023-01-23T05:05:40;-2.50;99.90
19242;DHT22;9755;47.790;9.620;2023-01-23T05:08:09;-2.50;99.90
19242;DHT22;9755;47.790;9.620;2023-01-23T05:10:36;-2.50;99.90
19242;DHT22;9755;47.790;9.620;2023-01-23T05:13:03;-2.40;1.00
19242;DHT22;9755;47.790;9.620;2023-01-23T05:15:32;-2.30;99.90
19242;DHT22;9755;47.790;9.620;2023-01-23T05:17:59;-2.30;1.00
19242;DHT22;9755;47.790;9.620;2023-01-23T05:20:26;-2.20;1.00
19242;DHT22;9755;47.790;9.620;2023-01-23T05:22:53;-2.20;1.00
19242;DHT22;9755;47.790;9.620;2023-01-23T05:25:21;-2.10;99.90
19242;DHT22;9755;47.790;9.620;2023-01-23T05:27:48;-2.10;51.40
19242;DHT22;9755;47.790;9.620;2023-01-23T05:30:16;-2.10;1.00
19242;DHT22;9755;47.790;9.620;2023-01-23T05:32:45;-2.10;1.00
19242;DHT22;9755;47.790;9.620;2023-01-23T05:35:12;-2.00;1.00
19242;DHT22;9755;47.790;9.620;2023-01-23T05:37:39;-2.00;1.00
19242;DHT22;9755;47.790;9.620;2023-01-23T05:40:09;-2.00;1.00
19242;DHT22;9755;47.790;9.620;2023-01-23T05:42:37;-2.00;99.90
19242;DHT22;9755;47.790;9.620;2023-01-23T05:45:04;-2.00;15.50
19242;DHT22;9755;47.790;9.620;2023-01-23T05:47:32;-2.00;1.00
19242;DHT22;9755;47.790;9.620;2023-01-23T05:50:00;-1.90;1.00
19242;DHT22;9755;47.790;9.620;2023-01-23T05:52:27;-1.90;1.00
19242;DHT22;9755;47.790;9.620;2023-01-23T05:54:54;-1.90;1.00
19242;DHT22;9755;47.790;9.620;2023-01-23T05:57:21;-1.90;1.00
19242;DHT22;9755;47.790;9.620;2023-01-23T05:59:49;-1.90;1.00
19242;DHT22;9755;47.790;9.620;2023-01-23T06:02:16;-1.90;1.00
19242;DHT22;9755;47.790;9.620;2023-01-23T06:04:45;-1.90;1.00
19242;DHT22;9755;47.790;9.620;2023-01-23T06:07:15;-1.90;1.00
19242;DHT22;9755;47.790;9.620;2023-01-23T06:09:42;-1.90;1.00
19242;DHT22;9755;47.790;9.620;2023-01-23T06:12:10;-1.90;1.00
19242;DHT22;9755;47.790;9.620;2023-01-23T06:14:37;-1.90;1.00
19242;DHT22;9755;47.790;9.620;2023-01-23T06:17:05;-1.90;1.00
19242;DHT22;9755;47.790;9.620;2023-01-23T06:19:32;-1.90;1.00
19242;DHT22;9755;47.790;9.620;2023-01-23T06:21:59;-1.90;1.00
19242;DHT22;9755;47.790;9.620;2023-01-23T06:24:28;-1.90;1.00
19242;DHT22;9755;47.790;9.620;2023-01-23T06:26:55;-1.90;1.00
19242;DHT22;9755;47.790;9.620;2023-01-23T06:29:22;-1.90;1.00
19242;DHT22;9755;47.790;9.620;2023-01-23T06:31:49;-1.80;1.00
19242;DHT22;9755;47.790;9.620;2023-01-23T06:34:16;-1.90;21.00
19242;DHT22;9755;47.790;9.620;2023-01-23T06:36:43;-1.90;40.70
19242;DHT22;9755;47.790;9.620;2023-01-23T06:39:12;-1.90;99.90
19242;DHT22;9755;47.790;9.620;2023-01-23T06:41:42;-1.90;99.90
19242;DHT22;9755;47.790;9.620;2023-01-23T06:44:09;-1.80;99.90
19242;DHT22;9755;47.790;9.620;2023-01-23T06:46:36;-1.80;99.90
19242;DHT22;9755;47.790;9.620;2023-01-23T06:49:04;-1.80;99.90
19242;DHT22;9755;47.790;9.620;2023-01-23T06:51:32;-1.80;99.90
19242;DHT22;9755;47.790;9.620;2023-01-23T06:53:59;-1.90;99.90
19242;DHT22;9755;47.790;9.620;2023-01-23T06:56:26;-1.90;99.90
19242;DHT22;9755;47.790;9.620;2023-01-23T06:58:54;-1.90;1.00
19242;DHT22;9755;47.790;9.620;2023-01-23T07:01:22;-1.90;1.00
19242;DHT22;9755;47.790;9.620;2023-01-23T07:03:49;-1.90;1.00
19242;DHT22;9755;47.790;9.620;2023-01-23T07:06:16;-1.90;99.90
19242;DHT22;9755;47.790;9.620;2023-01-23T07:08:43;-1.80;99.90
19242;DHT22;9755;47.790;9.620;2023-01-23T07:11:10;-1.80;1.00
19242;DHT22;9755;47.790;9.620;2023-01-23T07:13:38;-1.80;1.00
19242;DHT22;9755;47.790;9.620;2023-01-23T07:16:06;-1.70;1.00
19242;DHT22;9755;47.790;9.620;2023-01-23T07:18:33;-1.70;1.00
19242;DHT22;9755;47.790;9.620;2023-01-23T07:21:03;-1.70;1.00
19242;DHT22;9755;47.790;9.620;2023-01-23T07:23:31;-1.60;1.00
19242;DHT22;9755;47.790;9.620;2023-01-23T07:25:59;-1.60;1.00
19242;DHT22;9755;47.790;9.620;2023-01-23T07:28:31;-1.60;1.00
19242;DHT22;9755;47.790;9.620;2023-01-23T07:30:58;-1.60;1.00
19242;DHT22;9755;47.790;9.620;2023-01-23T07:33:27;-1.60;1.00
19242;DHT22;9755;47.790;9.620;2023-01-23T07:35:57;-1.60;1.00
19242;DHT22;9755;47.790;9.620;2023-01-23T07:38:24;-1.50;1.00
19242;DHT22;9755;47.790;9.620;2023-01-23T07:40:51;-1.50;1.00
19242;DHT22;9755;47.790;9.620;2023-01-23T07:43:19;-1.50;1.00
19242;DHT22;9755;47.790;9.620;2023-01-23T07:45:46;-1.50;1.00
19242;DHT22;9755;47.790;9.620;2023-01-23T07:48:13;-1.40;1.00
19242;DHT22;9755;47.790;9.620;2023-01-23T07:50:42;-1.40;99.90
19242;DHT22;9755;47.790;9.620;2023-01-23T07:53:09;-1.40;99.90
19242;DHT22;9755;47.790;9.620;2023-01-23T07:55:37;-1.40;99.90
19242;DHT22;9755;47.790;9.620;2023-01-23T07:58:04;-1.40;1.00
19242;DHT22;9755;47.790;9.620;2023-01-23T08:00:31;-1.30;1.00
19242;DHT22;9755;47.790;9.620;2023-01-23T08:02:58;-1.30;1.00
19242;DHT22;9755;47.790;9.620;2023-01-23T08:05:25;-1.30;1.00
19242;DHT22;9755;47.790;9.620;2023-01-23T08:07:54;-1.30;1.00
19242;DHT22;9755;47.790;9.620;2023-01-23T08:10:21;-1.30;1.00
19242;DHT22;9755;47.790;9.620;2023-01-23T08:12:48;-1.30;24.80
19242;DHT22;9755;47.790;9.620;2023-01-23T08:15:15;-1.20;99.90
19242;DHT22;9755;47.790;9.620;2023-01-23T08:17:42;-1.20;1.00
19242;DHT22;9755;47.790;9.620;2023-01-23T08:20:10;-1.20;1.00
19242;DHT22;9755;47.790;9.620;2023-01-23T08:22:37;-1.20;67.30
19242;DHT22;9755;47.790;9.620;2023-01-23T08:25:08;-1.20;99.90
19242;DHT22;9755;47.790;9.620;2023-01-23T08:27:35;-1.20;1.00
19242;DHT22;9755;47.790;9.620;2023-01-23T08:30:03;-1.20;1.00
19242;DHT22;9755;47.790;9.620;2023-01-23T08:32:31;-1.20;1.00
19242;DHT22;9755;47.790;9.620;2023-01-23T08:35:00;-1.20;16.90
19242;DHT22;9755;47.790;9.620;2023-01-23T08:37:27;-1.30;99.90
19242;DHT22;9755;47.790;9.620;2023-01-23T08:39:54;-1.30;1.00
19242;DHT22;9755;47.790;9.620;2023-01-23T08:42:22;-1.30;1.00
19242;DHT22;9755;47.790;9.620;2023-01-23T08:44:49;-1.30;1.00
19242;DHT22;9755;47.790;9.620;2023-01-23T08:47:17;-1.30;99.90
19242;DHT22;9755;47.790;9.620;2023-01-23T08:49:44;-1.20;1.00
19242;DHT22;9755;47.790;9.620;2023-01-23T08:52:11;-1.20;1.00
19242;DHT22;9755;47.790;9.620;2023-01-23T08:54:38;-1.20;1.00
19242;DHT22;9755;47.790;9.620;2023-01-23T08:57:05;-1.20;1.00
19242;DHT22;9755;47.790;9.620;2023-01-23T08:59:33;-1.20;1.00
19242;DHT22;9755;47.790;9.620;2023-01-23T09:02:00;-1.20;99.90
19242;DHT22;9755;47.790;9.620;2023-01-23T09:04:27;-1.10;1.00
19242;DHT22;9755;47.790;9.620;2023-01-23T09:06:54;-1.20;99.90
19242;DHT22;9755;47.790;9.620;2023-01-23T09:09:21;-1.10;99.90
19242;DHT22;9755;47.790;9.620;2023-01-23T09:11:48;-1.10;99.90
19242;DHT22;9755;47.790;9.620;2023-01-23T09:14:15;-1.00;99.90
19242;DHT22;9755;47.790;9.620;2023-01-23T09:16:44;-0.90;1.10
19242;DHT22;9755;47.790;9.620;2023-01-23T09:19:11;-0.90;1.00
19242;DHT22;9755;47.790;9.620;2023-01-23T09:21:38;-0.80;1.00
19242;DHT22;9755;47.790;9.620;2023-01-23T09:24:06;-0.80;99.90
19242;DHT22;9755;47.790;9.620;2023-01-23T09:26:33;-0.80;1.00
19242;DHT22;9755;47.790;9.620;2023-01-23T09:29:00;-0.80;99.90
19242;DHT22;9755;47.790;9.620;2023-01-23T09:31:27;-0.90;1.00
19242;DHT22;9755;47.790;9.620;2023-01-23T09:33:55;-0.90;1.00
19242;DHT22;9755;47.790;9.620;2023-01-23T09:36:22;-0.90;1.00
19242;DHT22;9755;47.790;9.620;2023-01-23T09:38:49;-0.90;99.90
19242;DHT22;9755;47.790;9.620;2023-01-23T09:41:19;-0.90;99.90
19242;DHT22;9755;47.790;9.620;2023-01-23T09:43:54;-0.80;1.00
19242;DHT22;9755;47.790;9.620;2023-01-23T09:46:27;-0.80;99.90
19242;DHT22;9755;47.790;9.620;2023-01-23T09:49:02;-0.70;48.90
19242;DHT22;9755;47.790;9.620;2023-01-23T09:51:38;-0.70;1.00
19242;DHT22;9755;47.790;9.620;2023-01-23T09:54:16;-0.60;99.90
19242;DHT22;9755;47.790;9.620;2023-01-23T09:56:46;-0.70;59.80
19242;DHT22;9755;47.790;9.620;2023-01-23T09:59:22;-0.70;99.90
19242;DHT22;9755;47.790;9.620;2023-01-23T10:01:51;-0.70;1.00
19242;DHT22;9755;47.790;9.620;2023-01-23T10:04:19;-0.70;99.90
19242;DHT22;9755;47.790;9.620;2023-01-23T10:07:14;-0.70;99.90
19242;DHT22;9755;47.790;9.620;2023-01-23T10:12:43;-0.70;99.90
19242;DHT22;9755;47.790;9.620;2023-01-23T10:15:22;-0.70;1.00
19242;DHT22;9755;47.790;9.620;2023-01-23T10:18:00;-0.70;99.90
19242;DHT22;9755;47.790;9.620;2023-01-23T10:20:52;-0.60;99.90
19242;DHT22;9755;47.790;9.620;2023-01-23T10:23:37;-0.50;1.00
19242;DHT22;9755;47.790;9.620;2023-01-23T10:26:11;-0.50;1.00
19242;DHT22;9755;47.790;9.620;2023-01-23T10:28:41;-0.50;99.90
19242;DHT22;9755;47.790;9.620;2023-01-23T10:31:19;-0.50;1.00
19242;DHT22;9755;47.790;9.620;2023-01-23T10:33:55;-0.40;99.90
19242;DHT22;9755;47.790;9.620;2023-01-23T10:36:30;-0.50;99.90
19242;DHT22;9755;47.790;9.620;2023-01-23T10:39:03;-0.40;99.90
19242;DHT22;9755;47.790;9.620;2023-01-23T10:41:32;-0.30;99.90
19242;DHT22;9755;47.790;9.620;2023-01-23T10:44:00;-0.20;1.00
19242;DHT22;9755;47.790;9.620;2023-01-23T10:46:30;-0.20;1.00
19242;DHT22;9755;47.790;9.620;2023-01-23T10:49:00;-0.20;1.00
19242;DHT22;9755;47.790;9.620;2023-01-23T10:51:32;-0.10;1.00
19242;DHT22;9755;47.790;9.620;2023-01-23T10:54:01;0.00;1.00
19242;DHT22;9755;47.790;9.620;2023-01-23T10:56:28;0.10;99.90
19242;DHT22;9755;47.790;9.620;2023-01-23T10:58:57;0.10;99.90
19242;DHT22;9755;47.790;9.620;2023-01-23T11:01:26;0.10;99.90
19242;DHT22;9755;47.790;9.620;2023-01-23T11:03:55;0.10;99.90
19242;DHT22;9755;47.790;9.620;2023-01-23T11:06:23;0.20;99.90
19242;DHT22;9755;47.790;9.620;2023-01-23T11:08:57;0.20;18.10
19242;DHT22;9755;47.790;9.620;2023-01-23T11:11:27;0.10;1.00
19242;DHT22;9755;47.790;9.620;2023-01-23T11:14:06;0.10;1.00
19242;DHT22;9755;47.790;9.620;2023-01-23T11:16:34;0.20;99.90
19242;DHT22;9755;47.790;9.620;2023-01-23T11:19:14;0.10;99.90
19242;DHT22;9755;47.790;9.620;2023-01-23T11:21:54;0.10;99.90
19242;DHT22;9755;47.790;9.620;2023-01-23T11:24:29;0.20;99.90
19242;DHT22;9755;47.790;9.620;2023-01-23T11:27:01;0.10;54.60
19242;DHT22;9755;47.790;9.620;2023-01-23T11:29:30;0.10;99.90
19242;DHT22;9755;47.790;9.620;2023-01-23T11:32:11;0.10;92.40
19242;DHT22;9755;47.790;9.620;2023-01-23T11:34:43;0.10;79.80
19242;DHT22;9755;47.790;9.620;2023-01-23T11:37:14;0.10;1.00
19242;DHT22;9755;47.790;9.620;2023-01-23T11:39:48;0.20;1.00
19242;DHT22;9755;47.790;9.620;2023-01-23T11:42:16;0.20;1.00
19242;DHT22;9755;47.790;9.620;2023-01-23T11:44:44;0.10;1.00
19242;DHT22;9755;47.790;9.620;2023-01-23T11:47:33;0.20;1.00
19242;DHT22;9755;47.790;9.620;2023-01-23T11:50:29;0.20;1.00
19242;DHT22;9755;47.790;9.620;2023-01-23T11:53:06;0.20;1.00
19242;DHT22;9755;47.790;9.620;2023-01-23T11:56:08;0.20;1.00
19242;DHT22;9755;47.790;9.620;2023-01-23T11:59:04;0.20;1.00
19242;DHT22;9755;47.790;9.620;2023-01-23T12:01:39;0.20;1.00
19242;DHT22;9755;47.790;9.620;2023-01-23T12:04:39;0.20;1.00
19242;DHT22;9755;47.790;9.620;2023-01-23T12:07:16;0.20;1.00
19242;DHT22;9755;47.790;9.620;2023-01-23T12:09:54;0.20;99.90
19242;DHT22;9755;47.790;9.620;2023-01-23T12:12:41;0.20;1.00
19242;DHT22;9755;47.790;9.620;2023-01-23T12:15:16;0.30;1.00
19242;DHT22;9755;47.790;9.620;2023-01-23T12:17:50;0.30;1.00
19242;DHT22;9755;47.790;9.620;2023-01-23T12:20:43;0.20;1.00
19242;DHT22;9755;47.790;9.620;2023-01-23T12:23:35;0.30;1.00
19242;DHT22;9755;47.790;9.620;2023-01-23T12:26:11;0.30;1.00
19242;DHT22;9755;47.790;9.620;2023-01-23T12:29:06;0.30;1.00
19242;DHT22;9755;47.790;9.620;2023-01-23T12:31:47;0.40;1.00
19242;DHT22;9755;47.790;9.620;2023-01-23T12:37:20;0.30;1.00
19242;DHT22;9755;47.790;9.620;2023-01-23T12:40:04;0.40;1.00
19242;DHT22;9755;47.790;9.620;2023-01-23T12:42:39;0.40;1.00
19242;DHT22;9755;47.790;9.620;2023-01-23T12:45:17;0.30;1.00
19242;DHT22;9755;47.790;9.620;2023-01-23T12:47:52;0.30;1.00
19242;DHT22;9755;47.790;9.620;2023-01-23T12:50:23;0.30;1.00
19242;DHT22;9755;47.790;9.620;2023-01-23T12:52:58;0.30;1.00
19242;DHT22;9755;47.790;9.620;2023-01-23T12:55:31;0.40;1.00
19242;DHT22;9755;47.790;9.620;2023-01-23T12:58:00;0.40;1.00
19242;DHT22;9755;47.790;9.620;2023-01-23T13:00:36;0.40;1.00
19242;DHT22;9755;47.790;9.620;2023-01-23T13:03:24;0.40;94.30
19242;DHT22;9755;47.790;9.620;2023-01-23T13:06:05;0.40;99.90
19242;DHT22;9755;47.790;9.620;2023-01-23T13:08:38;0.40;99.90
19242;DHT22;9755;47.790;9.620;2023-01-23T13:11:11;0.30;99.90
19242;DHT22;9755;47.790;9.620;2023-01-23T13:14:21;0.30;1.00
19242;DHT22;9755;47.790;9.620;2023-01-23T13:16:51;0.30;99.90
19242;DHT22;9755;47.790;9.620;2023-01-23T13:19:23;0.30;1.00
19242;DHT22;9755;47.790;9.620;2023-01-23T13:22:23;0.30;1.00
19242;DHT22;9755;47.790;9.620;2023-01-23T13:24:51;0.20;31.10
19242;DHT22;9755;47.790;9.620;2023-01-23T13:27:39;0.30;1.00
19242;DHT22;9755;47.790;9.620;2023-01-23T13:30:38;0.30;99.90
19242;DHT22;9755;47.790;9.620;2023-01-23T13:36:35;0.30;1.00
19242;DHT22;9755;47.790;9.620;2023-01-23T13:39:18;0.30;99.90
19242;DHT22;9755;47.790;9.620;2023-01-23T13:41:47;0.30;1.00
19242;DHT22;9755;47.790;9.620;2023-01-23T13:44:20;0.30;1.00
19242;DHT22;9755;47.790;9.620;2023-01-23T13:47:08;0.20;1.00
19242;DHT22;9755;47.790;9.620;2023-01-23T13:49:58;0.30;1.00
19242;DHT22;9755;47.790;9.620;2023-01-23T13:52:40;0.30;99.90
19242;DHT22;9755;47.790;9.620;2023-01-23T13:55:27;0.30;99.90
19242;DHT22;9755;47.790;9.620;2023-01-23T13:58:15;0.30;1.00
19242;DHT22;9755;47.790;9.620;2023-01-23T14:00:49;0.30;1.00
19242;DHT22;9755;47.790;9.620;2023-01-23T14:03:37;0.40;1.00
19242;DHT22;9755;47.790;9.620;2023-01-23T14:06:31;0.40;1.00
19242;DHT22;9755;47.790;9.620;2023-01-23T14:09:00;0.40;1.00
19242;DHT22;9755;47.790;9.620;2023-01-23T14:11:34;0.40;1.00
19242;DHT22;9755;47.790;9.620;2023-01-23T14:14:03;0.30;1.00
19242;DHT22;9755;47.790;9.620;2023-01-23T14:16:49;0.40;99.90
19242;DHT22;9755;47.790;9.620;2023-01-23T14:19:22;0.30;99.90
19242;DHT22;9755;47.790;9.620;2023-01-23T14:21:52;0.40;1.00
19242;DHT22;9755;47.790;9.620;2023-01-23T14:24:23;0.40;99.90
19242;DHT22;9755;47.790;9.620;2023-01-23T14:26:57;0.40;99.90
19242;DHT22;9755;47.790;9.620;2023-01-23T14:29:25;0.40;99.90
19242;DHT22;9755;47.790;9.620;2023-01-23T14:31:53;0.40;99.90
19242;DHT22;9755;47.790;9.620;2023-01-23T14:34:22;0.40;8.80
19242;DHT22;9755;47.790;9.620;2023-01-23T14:36:52;0.40;1.00
19242;DHT22;9755;47.790;9.620;2023-01-23T14:39:24;0.50;1.00
19242;DHT22;9755;47.790;9.620;2023-01-23T14:41:53;0.60;1.00
19242;DHT22;9755;47.790;9.620;2023-01-23T14:44:24;0.60;1.00
19242;DHT22;9755;47.790;9.620;2023-01-23T14:46:59;0.60;99.90
19242;DHT22;9755;47.790;9.620;2023-01-23T14:49:31;0.50;99.90
19242;DHT22;9755;47.790;9.620;2023-01-23T14:52:01;0.60;99.90
19242;DHT22;9755;47.790;9.620;2023-01-23T14:54:31;0.60;99.90
19242;DHT22;9755;47.790;9.620;2023-01-23T14:57:00;0.60;99.90
19242;DHT22;9755;47.790;9.620;2023-01-23T14:59:31;0.60;99.90
19242;DHT22;9755;47.790;9.620;2023-01-23T15:02:01;0.60;25.60
19242;DHT22;9755;47.790;9.620;2023-01-23T15:04:29;0.60;99.90
19242;DHT22;9755;47.790;9.620;2023-01-23T15:06:57;0.60;99.90
19242;DHT22;9755;47.790;9.620;2023-01-23T15:09:27;0.60;99.90
19242;DHT22;9755;47.790;9.620;2023-01-23T15:12:03;0.60;99.90
19242;DHT22;9755;47.790;9.620;2023-01-23T15:14:35;0.60;99.90
19242;DHT22;9755;47.790;9.620;2023-01-23T15:17:05;0.70;1.00
19242;DHT22;9755;47.790;9.620;2023-01-23T15:19:35;0.70;99.90
19242;DHT22;9755;47.790;9.620;2023-01-23T15:22:07;0.70;99.90
19242;DHT22;9755;47.790;9.620;2023-01-23T15:24:41;0.70;99.90
19242;DHT22;9755;47.790;9.620;2023-01-23T15:27:25;0.70;98.20
19242;DHT22;9755;47.790;9.620;2023-01-23T15:32:53;0.70;99.90
19242;DHT22;9755;47.790;9.620;2023-01-23T15:35:20;0.70;99.90
19242;DHT22;9755;47.790;9.620;2023-01-23T15:37:48;0.70;1.00
19242;DHT22;9755;47.790;9.620;2023-01-23T15:40:24;0.70;99.90
19242;DHT22;9755;47.790;9.620;2023-01-23T15:43:04;0.70;42.40
19242;DHT22;9755;47.790;9.620;2023-01-23T15:45:33;0.70;1.00
19242;DHT22;9755;47.790;9.620;2023-01-23T15:48:00;0.70;1.00
19242;DHT22;9755;47.790;9.620;2023-01-23T15:50:27;0.70;97.50
19242;DHT22;9755;47.790;9.620;2023-01-23T15:52:55;0.70;99.90
19242;DHT22;9755;47.790;9.620;2023-01-23T15:55:24;0.70;1.00
19242;DHT22;9755;47.790;9.620;2023-01-23T15:57:52;0.70;11.60
19242;DHT22;9755;47.790;9.620;2023-01-23T16:00:23;0.70;1.00
19242;DHT22;9755;47.790;9.620;2023-01-23T16:02:51;0.70;1.00
19242;DHT22;9755;47.790;9.620;2023-01-23T16:05:18;0.70;99.90
19242;DHT22;9755;47.790;9.620;2023-01-23T16:07:46;0.70;1.00
19242;DHT22;9755;47.790;9.620;2023-01-23T16:10:17;0.70;99.90
19242;DHT22;9755;47.790;9.620;2023-01-23T16:12:45;0.70;1.00
19242;DHT22;9755;47.790;9.620;2023-01-23T16:15:14;0.70;1.00
19242;DHT22;9755;47.790;9.620;2023-01-23T16:17:44;0.70;1.00
19242;DHT22;9755;47.790;9.620;2023-01-23T16:20:13;0.70;1.00
19242;DHT22;9755;47.790;9.620;2023-01-23T16:22:41;0.70;1.00
19242;DHT22;9755;47.790;9.620;2023-01-23T16:25:16;0.80;1.00
19242;DHT22;9755;47.790;9.620;2023-01-23T16:27:44;0.80;99.90
19242;DHT22;9755;47.790;9.620;2023-01-23T16:30:15;0.80;1.00
19242;DHT22;9755;47.790;9.620;2023-01-23T16:32:45;0.80;1.00
19242;DHT22;9755;47.790;9.620;2023-01-23T16:35:13;0.80;1.00